sensor_id;sensor_type;location;lat;lon;timestamp;pressure;altitude;pressure_sealevel;temperature;humidity
72798;BME280;61084;55.816;37.036;2022-12-10T00:01:22;99357.94;;;-1.25;67.89
72798;BME280;61084;55.816;37.036;2022-12-10T00:03:48;99362.25;;;-1.30;68.02
72798;BME280;61084;55.816;37.036;2022-12-10T00:06:16;99354.59;;;-1.33;68.01
72798;BME280;61084;55.816;37.036;2022-12-10T00:08:42;99358.88;;;-1.35;67.96
72798;BME280;61084;55.816;37.036;2022-12-10T00:11:10;99364.91;;;-1.38;67.94
72798;BME280;61084;55.816;37.036;2022-12-10T00:13:37;99358.03;;;-1.39;67.95
72798;BME280;61084;55.816;37.036;2022-12-10T00:16:06;99359.72;;;-1.36;67.92
72798;BME280;61084;55.816;37.036;2022-12-10T00:18:33;99351.19;;;-1.40;67.81
72798;BME280;61084;55.816;37.036;2022-12-10T00:21:03;99364.91;;;-1.38;67.88
72798;BME280;61084;55.816;37.036;2022-12-10T00:23:30;99365.78;;;-1.40;67.92
72798;BME280;61084;55.816;37.036;2022-12-10T00:26:05;99371.75;;;-1.38;67.81
72798;BME280;61084;55.816;37.036;2022-12-10T00:28:31;99365.75;;;-1.37;68.05
72798;BME280;61084;55.816;37.036;2022-12-10T00:31:06;99376.03;;;-1.34;68.16
72798;BME280;61084;55.816;37.036;2022-12-10T00:33:33;99381.19;;;-1.33;68.00
72798;BME280;61084;55.816;37.036;2022-12-10T00:36:11;99368.31;;;-1.33;68.30
72798;BME280;61084;55.816;37.036;2022-12-10T00:38:37;99366.56;;;-1.32;68.30
72798;BME280;61084;55.816;37.036;2022-12-10T00:41:03;99355.44;;;-1.36;68.32
72798;BME280;61084;55.816;37.036;2022-12-10T00:43:29;99358.00;;;-1.34;68.31
72798;BME280;61084;55.816;37.036;2022-12-10T00:45:56;99347.72;;;-1.34;68.02
72798;BME280;61084;55.816;37.036;2022-12-10T00:48:22;99352.03;;;-1.35;68.12
72798;BME280;61084;55.816;37.036;2022-12-10T00:50:58;99347.75;;;-1.37;68.07
72798;BME280;61084;55.816;37.036;2022-12-10T00:53:25;99339.19;;;-1.42;68.22
72798;BME280;61084;55.816;37.036;2022-12-10T00:55:53;99328.91;;;-1.44;68.25
72798;BME280;61084;55.816;37.036;2022-12-10T00:58:19;99334.94;;;-1.46;68.26
72798;BME280;61084;55.816;37.036;2022-12-10T01:00:45;99337.53;;;-1.48;68.27
72798;BME280;61084;55.816;37.036;2022-12-10T01:03:11;99345.22;;;-1.45;68.39
72798;BME280;61084;55.816;37.036;2022-12-10T01:05:37;99344.31;;;-1.41;68.63
72798;BME280;61084;55.816;37.036;2022-12-10T01:08:02;99345.16;;;-1.39;68.44
72798;BME280;61084;55.816;37.036;2022-12-10T01:10:28;99353.72;;;-1.37;68.51
72798;BME280;61084;55.816;37.036;2022-12-10T01:12:54;99357.16;;;-1.36;68.56
72798;BME280;61084;55.816;37.036;2022-12-10T01:15:20;99348.56;;;-1.32;68.56
72798;BME280;61084;55.816;37.036;2022-12-10T01:17:45;99334.84;;;-1.33;68.42
72798;BME280;61084;55.816;37.036;2022-12-10T01:20:13;99341.69;;;-1.32;68.65
72798;BME280;61084;55.816;37.036;2022-12-10T01:22:38;99329.69;;;-1.28;68.55
72798;BME280;61084;55.816;37.036;2022-12-10T01:25:05;99339.09;;;-1.27;68.47
72798;BME280;61084;55.816;37.036;2022-12-10T01:27:30;99334.78;;;-1.25;68.52
72798;BME280;61084;55.816;37.036;2022-12-10T01:29:56;99335.66;;;-1.25;68.52
72798;BME280;61084;55.816;37.036;2022-12-10T01:32:22;99321.06;;;-1.24;68.38
72798;BME280;61084;55.816;37.036;2022-12-10T01:34:48;99337.34;;;-1.22;68.53
72798;BME280;61084;55.816;37.036;2022-12-10T01:37:13;99335.63;;;-1.23;68.56
72798;BME280;61084;55.816;37.036;2022-12-10T01:39:39;99336.47;;;-1.23;68.75
72798;BME280;61084;55.816;37.036;2022-12-10T01:42:05;99342.50;;;-1.22;68.50
72798;BME280;61084;55.816;37.036;2022-12-10T01:47:00;99344.22;;;-1.24;68.97
72798;BME280;61084;55.816;37.036;2022-12-10T01:49:35;99335.63;;;-1.22;68.98
72798;BME280;61084;55.816;37.036;2022-12-10T01:52:01;99332.19;;;-1.21;68.99
72798;BME280;61084;55.816;37.036;2022-12-10T01:54:31;99327.88;;;-1.19;69.19
72798;BME280;61084;55.816;37.036;2022-12-10T01:57:02;99321.84;;;-1.16;68.66
72798;BME280;61084;55.816;37.036;2022-12-10T01:59:30;99324.38;;;-1.12;68.86
72798;BME280;61084;55.816;37.036;2022-12-10T02:02:17;99320.97;;;-1.12;68.60
72798;BME280;61084;55.816;37.036;2022-12-10T02:05:07;99318.41;;;-1.14;68.94
72798;BME280;61084;55.816;37.036;2022-12-10T02:15:49;99326.09;;;-1.12;68.72
72798;BME280;61084;55.816;37.036;2022-12-10T02:18:28;99313.25;;;-1.14;68.92
72798;BME280;61084;55.816;37.036;2022-12-10T02:21:02;99316.72;;;-1.18;68.81
72798;BME280;61084;55.816;37.036;2022-12-10T02:23:38;99309.84;;;-1.16;69.00
72798;BME280;61084;55.816;37.036;2022-12-10T02:26:20;99311.53;;;-1.13;68.84
72798;BME280;61084;55.816;37.036;2022-12-10T02:29:04;99311.50;;;-1.12;69.06
72798;BME280;61084;55.816;37.036;2022-12-10T02:31:32;99313.22;;;-1.11;68.65
72798;BME280;61084;55.816;37.036;2022-12-10T02:34:03;99310.63;;;-1.11;68.78
72798;BME280;61084;55.816;37.036;2022-12-10T02:36:35;99301.19;;;-1.10;69.00
72798;BME280;61084;55.816;37.036;2022-12-10T02:39:03;99301.16;;;-1.09;69.16
72798;BME280;61084;55.816;37.036;2022-12-10T02:41:38;99290.03;;;-1.09;68.76
72798;BME280;61084;55.816;37.036;2022-12-10T02:44:11;99284.91;;;-1.12;68.97
72798;BME280;61084;55.816;37.036;2022-12-10T02:46:38;99288.34;;;-1.12;69.08
72798;BME280;61084;55.816;37.036;2022-12-10T02:49:08;99290.88;;;-1.09;68.92
72798;BME280;61084;55.816;37.036;2022-12-10T02:51:35;99286.59;;;-1.08;68.77
72798;BME280;61084;55.816;37.036;2022-12-10T02:54:03;99276.28;;;-1.07;68.97
72798;BME280;61084;55.816;37.036;2022-12-10T02:56:42;99277.16;;;-1.08;68.97
72798;BME280;61084;55.816;37.036;2022-12-10T02:59:16;99277.13;;;-1.06;68.97
72798;BME280;61084;55.816;37.036;2022-12-10T03:04:39;99276.28;;;-1.05;69.17
72798;BME280;61084;55.816;37.036;2022-12-10T03:07:16;99272.78;;;-1.01;68.85
72798;BME280;61084;55.816;37.036;2022-12-10T03:09:52;99277.09;;;-1.00;68.94
72798;BME280;61084;55.816;37.036;2022-12-10T03:12:24;99278.78;;;-0.99;69.08
72798;BME280;61084;55.816;37.036;2022-12-10T03:14:58;99283.06;;;-0.97;69.15
72798;BME280;61084;55.816;37.036;2022-12-10T03:17:26;99288.22;;;-0.97;68.86
72798;BME280;61084;55.816;37.036;2022-12-10T03:19:55;99299.41;;;-1.01;68.81
72798;BME280;61084;55.816;37.036;2022-12-10T03:22:22;99300.25;;;-1.02;69.11
72798;BME280;61084;55.816;37.036;2022-12-10T03:24:48;99306.28;;;-1.01;68.97
72798;BME280;61084;55.816;37.036;2022-12-10T03:27:15;99299.38;;;-0.99;68.99
72798;BME280;61084;55.816;37.036;2022-12-10T03:29:49;99303.69;;;-0.98;68.96
72798;BME280;61084;55.816;37.036;2022-12-10T03:32:16;99289.06;;;-0.98;69.01
72798;BME280;61084;55.816;37.036;2022-12-10T03:34:43;99289.06;;;-0.98;68.88
72798;BME280;61084;55.816;37.036;2022-12-10T03:37:10;99282.19;;;-0.97;68.70
72798;BME280;61084;55.816;37.036;2022-12-10T03:39:37;99289.94;;;-0.97;69.16
72798;BME280;61084;55.816;37.036;2022-12-10T03:42:05;99280.47;;;-0.95;68.89
72798;BME280;61084;55.816;37.036;2022-12-10T03:44:35;99288.16;;;-0.91;68.97
72798;BME280;61084;55.816;37.036;2022-12-10T03:47:04;99285.53;;;-0.89;69.13
72798;BME280;61084;55.816;37.036;2022-12-10T03:49:30;99286.41;;;-0.89;69.11
72798;BME280;61084;55.816;37.036;2022-12-10T03:51:56;99283.84;;;-0.89;68.95
72798;BME280;61084;55.816;37.036;2022-12-10T03:54:23;99288.09;;;-0.86;69.13
72798;BME280;61084;55.816;37.036;2022-12-10T03:56:49;99286.41;;;-0.87;68.91
72798;BME280;61084;55.816;37.036;2022-12-10T03:59:14;99285.50;;;-0.83;69.25
72798;BME280;61084;55.816;37.036;2022-12-10T04:01:41;99291.50;;;-0.81;69.06
72798;BME280;61084;55.816;37.036;2022-12-10T04:04:07;99286.31;;;-0.80;69.08
72798;BME280;61084;55.816;37.036;2022-12-10T04:06:33;99298.34;;;-0.77;68.69
72798;BME280;61084;55.816;37.036;2022-12-10T04:08:59;99292.31;;;-0.78;68.75
72798;BME280;61084;55.816;37.036;2022-12-10T04:11:25;99290.63;;;-0.80;68.87
72798;BME280;61084;55.816;37.036;2022-12-10T04:13:51;99295.75;;;-0.77;69.08
72798;BME280;61084;55.816;37.036;2022-12-10T04:16:36;99299.19;;;-0.78;68.89
72798;BME280;61084;55.816;37.036;2022-12-10T04:19:03;99311.25;;;-0.79;69.12
72798;BME280;61084;55.816;37.036;2022-12-10T04:21:31;99309.53;;;-0.81;69.13
72798;BME280;61084;55.816;37.036;2022-12-10T04:24:18;99313.81;;;-0.79;68.80
72798;BME280;61084;55.816;37.036;2022-12-10T04:27:07;99297.44;;;-0.76;68.88
72798;BME280;61084;55.816;37.036;2022-12-10T04:29:33;99306.03;;;-0.72;69.07
72798;BME280;61084;55.816;37.036;2022-12-10T04:31:59;99297.41;;;-0.71;68.66
72798;BME280;61084;55.816;37.036;2022-12-10T04:34:25;99293.13;;;-0.71;68.84
72798;BME280;61084;55.816;37.036;2022-12-10T04:36:52;99294.00;;;-0.72;68.90
72798;BME280;61084;55.816;37.036;2022-12-10T04:39:18;99284.53;;;-0.70;68.88
72798;BME280;61084;55.816;37.036;2022-12-10T04:41:45;99274.19;;;-0.65;69.02
72798;BME280;61084;55.816;37.036;2022-12-10T04:44:12;99275.00;;;-0.65;68.84
72798;BME280;61084;55.816;37.036;2022-12-10T04:46:38;99270.69;;;-0.63;68.99
72798;BME280;61084;55.816;37.036;2022-12-10T04:49:04;99257.81;;;-0.61;68.83
72798;BME280;61084;55.816;37.036;2022-12-10T04:51:31;99262.06;;;-0.60;68.98
72798;BME280;61084;55.816;37.036;2022-12-10T04:53:57;99268.06;;;-0.58;69.16
72798;BME280;61084;55.816;37.036;2022-12-10T04:56:23;99252.63;;;-0.57;69.16
72798;BME280;61084;55.816;37.036;2022-12-10T04:58:49;99258.59;;;-0.56;69.23
72798;BME280;61084;55.816;37.036;2022-12-10T05:01:15;99256.00;;;-0.56;69.28
72798;BME280;61084;55.816;37.036;2022-12-10T05:03:45;99262.09;;;-0.59;68.91
72798;BME280;61084;55.816;37.036;2022-12-10T05:06:12;99250.88;;;-0.56;68.89
72798;BME280;61084;55.816;37.036;2022-12-10T05:08:39;99262.06;;;-0.57;68.99
72798;BME280;61084;55.816;37.036;2022-12-10T05:11:11;99268.94;;;-0.58;68.98
72798;BME280;61084;55.816;37.036;2022-12-10T05:13:38;99273.19;;;-0.55;68.83
72798;BME280;61084;55.816;37.036;2022-12-10T05:16:06;99270.59;;;-0.54;69.21
72798;BME280;61084;55.816;37.036;2022-12-10T05:18:33;99272.34;;;-0.56;68.71
72798;BME280;61084;55.816;37.036;2022-12-10T05:21:05;99274.97;;;-0.60;68.82
72798;BME280;61084;55.816;37.036;2022-12-10T05:23:31;99279.28;;;-0.61;68.94
72798;BME280;61084;55.816;37.036;2022-12-10T05:26:08;99280.97;;;-0.60;69.00
72798;BME280;61084;55.816;37.036;2022-12-10T05:28:40;99282.69;;;-0.60;68.96
72798;BME280;61084;55.816;37.036;2022-12-10T05:31:12;99293.88;;;-0.61;69.04
72798;BME280;61084;55.816;37.036;2022-12-10T05:33:38;99286.16;;;-0.61;68.67
72798;BME280;61084;55.816;37.036;2022-12-10T05:36:04;99281.84;;;-0.59;69.15
72798;BME280;61084;55.816;37.036;2022-12-10T05:38:31;99280.97;;;-0.57;69.12
72798;BME280;61084;55.816;37.036;2022-12-10T05:41:05;99269.75;;;-0.53;69.02
72798;BME280;61084;55.816;37.036;2022-12-10T05:43:31;99261.16;;;-0.53;68.90
72798;BME280;61084;55.816;37.036;2022-12-10T05:46:05;99268.84;;;-0.52;68.89
72798;BME280;61084;55.816;37.036;2022-12-10T05:48:33;99268.84;;;-0.49;69.03
72798;BME280;61084;55.816;37.036;2022-12-10T05:51:03;99280.00;;;-0.48;69.07
72798;BME280;61084;55.816;37.036;2022-12-10T05:53:29;99279.13;;;-0.46;68.89
72798;BME280;61084;55.816;37.036;2022-12-10T05:56:12;99270.56;;;-0.49;69.21
72798;BME280;61084;55.816;37.036;2022-12-10T05:58:40;99271.38;;;-0.47;69.07
72798;BME280;61084;55.816;37.036;2022-12-10T06:01:08;99270.50;;;-0.45;69.03
72798;BME280;61084;55.816;37.036;2022-12-10T06:03:34;99276.50;;;-0.43;68.86
72798;BME280;61084;55.816;37.036;2022-12-10T06:06:02;99286.78;;;-0.41;68.91
72798;BME280;61084;55.816;37.036;2022-12-10T06:08:28;99282.47;;;-0.41;68.98
72798;BME280;61084;55.816;37.036;2022-12-10T06:10:54;99279.06;;;-0.43;68.91
72798;BME280;61084;55.816;37.036;2022-12-10T06:13:21;99277.31;;;-0.41;69.22
72798;BME280;61084;55.816;37.036;2022-12-10T06:15:47;99280.75;;;-0.40;68.98
72798;BME280;61084;55.816;37.036;2022-12-10T06:18:12;99275.63;;;-0.42;68.83
72798;BME280;61084;55.816;37.036;2022-12-10T06:20:38;99267.06;;;-0.45;68.81
72798;BME280;61084;55.816;37.036;2022-12-10T06:23:05;99273.91;;;-0.43;69.00
72798;BME280;61084;55.816;37.036;2022-12-10T06:25:30;99273.03;;;-0.40;69.01
72798;BME280;61084;55.816;37.036;2022-12-10T06:27:56;99267.06;;;-0.44;69.07
72798;BME280;61084;55.816;37.036;2022-12-10T06:30:22;99260.16;;;-0.43;68.85
72798;BME280;61084;55.816;37.036;2022-12-10T06:32:48;99262.75;;;-0.42;69.17
72798;BME280;61084;55.816;37.036;2022-12-10T06:35:14;99269.56;;;-0.38;69.03
72798;BME280;61084;55.816;37.036;2022-12-10T06:37:39;99259.22;;;-0.33;69.41
72798;BME280;61084;55.816;37.036;2022-12-10T06:40:06;99261.72;;;-0.30;69.32
72798;BME280;61084;55.816;37.036;2022-12-10T06:42:31;99257.41;;;-0.28;69.02
72798;BME280;61084;55.816;37.036;2022-12-10T06:44:57;99259.09;;;-0.26;69.08
72798;BME280;61084;55.816;37.036;2022-12-10T06:47:23;99259.06;;;-0.23;69.11
72798;BME280;61084;55.816;37.036;2022-12-10T06:49:49;99262.47;;;-0.18;68.97
72798;BME280;61084;55.816;37.036;2022-12-10T06:52:14;99264.97;;;-0.15;69.21
72798;BME280;61084;55.816;37.036;2022-12-10T06:54:40;99272.66;;;-0.10;69.29
72798;BME280;61084;55.816;37.036;2022-12-10T06:57:06;99270.06;;;-0.07;69.00
72798;BME280;61084;55.816;37.036;2022-12-10T06:59:32;99267.44;;;-0.06;69.20
72798;BME280;61084;55.816;37.036;2022-12-10T07:01:58;99267.44;;;-0.03;69.03
72798;BME280;61084;55.816;37.036;2022-12-10T07:04:23;99257.97;;;-0.04;69.34
72798;BME280;61084;55.816;37.036;2022-12-10T07:06:50;99263.09;;;-0.02;69.29
72798;BME280;61084;55.816;37.036;2022-12-10T07:09:15;99260.47;;;0.01;69.27
72798;BME280;61084;55.816;37.036;2022-12-10T07:11:41;99258.78;;;0.02;69.25
72798;BME280;61084;55.816;37.036;2022-12-10T07:14:10;99257.03;;;0.04;68.95
72798;BME280;61084;55.816;37.036;2022-12-10T07:16:38;99258.72;;;0.06;69.27
72798;BME280;61084;55.816;37.036;2022-12-10T07:19:04;99256.94;;;0.10;69.19
72798;BME280;61084;55.816;37.036;2022-12-10T07:21:32;99255.22;;;0.10;69.02
72798;BME280;61084;55.816;37.036;2022-12-10T07:24:08;99258.59;;;0.14;69.14
72798;BME280;61084;55.816;37.036;2022-12-10T07:26:37;99254.28;;;0.14;69.26
72798;BME280;61084;55.816;37.036;2022-12-10T07:29:05;99261.16;;;0.14;69.44
72798;BME280;61084;55.816;37.036;2022-12-10T07:31:31;99259.41;;;0.16;69.40
72798;BME280;61084;55.816;37.036;2022-12-10T07:33:57;99249.06;;;0.19;69.19
72798;BME280;61084;55.816;37.036;2022-12-10T07:36:24;99262.84;;;0.19;69.31
72798;BME280;61084;55.816;37.036;2022-12-10T07:38:51;99265.38;;;0.21;69.32
72798;BME280;61084;55.816;37.036;2022-12-10T07:41:17;99257.66;;;0.19;69.27
72798;BME280;61084;55.816;37.036;2022-12-10T07:43:45;99254.19;;;0.22;69.23
72798;BME280;61084;55.816;37.036;2022-12-10T07:46:22;99248.19;;;0.21;69.56
72798;BME280;61084;55.816;37.036;2022-12-10T07:48:49;99250.69;;;0.24;69.39
72798;BME280;61084;55.816;37.036;2022-12-10T07:51:16;99249.81;;;0.27;69.33
72798;BME280;61084;55.816;37.036;2022-12-10T07:53:43;99246.28;;;0.31;69.61
72798;BME280;61084;55.816;37.036;2022-12-10T07:56:09;99251.44;;;0.34;69.60
72798;BME280;61084;55.816;37.036;2022-12-10T07:58:35;99259.13;;;0.37;69.24
72798;BME280;61084;55.816;37.036;2022-12-10T08:01:08;99258.22;;;0.39;69.53
72798;BME280;61084;55.816;37.036;2022-12-10T08:03:34;99250.47;;;0.39;69.40
72798;BME280;61084;55.816;37.036;2022-12-10T08:06:20;99249.56;;;0.42;69.55
72798;BME280;61084;55.816;37.036;2022-12-10T08:08:46;99247.78;;;0.47;69.65
72798;BME280;61084;55.816;37.036;2022-12-10T08:11:14;99250.31;;;0.51;69.45
72798;BME280;61084;55.816;37.036;2022-12-10T08:13:40;99251.13;;;0.53;69.52
72798;BME280;61084;55.816;37.036;2022-12-10T08:16:10;99246.84;;;0.54;69.05
72798;BME280;61084;55.816;37.036;2022-12-10T08:18:37;99245.06;;;0.56;69.62
72798;BME280;61084;55.816;37.036;2022-12-10T08:21:08;99247.63;;;0.57;69.25
72798;BME280;61084;55.816;37.036;2022-12-10T08:23:35;99249.31;;;0.60;69.42
72798;BME280;61084;55.816;37.036;2022-12-10T08:26:09;99243.25;;;0.61;69.34
72798;BME280;61084;55.816;37.036;2022-12-10T08:28:36;99245.78;;;0.64;69.16
72798;BME280;61084;55.816;37.036;2022-12-10T08:31:03;99235.44;;;0.67;69.27
72798;BME280;61084;55.816;37.036;2022-12-10T08:33:28;99231.03;;;0.72;69.54
72798;BME280;61084;55.816;37.036;2022-12-10T08:35:58;99236.97;;;0.77;69.67
72798;BME280;61084;55.816;37.036;2022-12-10T08:38:29;99234.34;;;0.78;69.14
72798;BME280;61084;55.816;37.036;2022-12-10T08:40:56;99237.72;;;0.84;69.36
72798;BME280;61084;55.816;37.036;2022-12-10T08:43:21;99235.94;;;0.87;69.25
72798;BME280;61084;55.816;37.036;2022-12-10T08:45:47;99229.00;;;0.91;69.44
72798;BME280;61084;55.816;37.036;2022-12-10T08:48:13;99230.69;;;0.92;69.07
72798;BME280;61084;55.816;37.036;2022-12-10T08:50:39;99228.06;;;0.95;69.39
72798;BME280;61084;55.816;37.036;2022-12-10T08:53:05;99228.88;;;0.97;69.16
72798;BME280;61084;55.816;37.036;2022-12-10T08:55:31;99230.56;;;0.99;69.29
72798;BME280;61084;55.816;37.036;2022-12-10T08:57:57;99230.50;;;1.04;69.25
72798;BME280;61084;55.816;37.036;2022-12-10T09:00:24;99227.00;;;1.06;69.29
72798;BME280;61084;55.816;37.036;2022-12-10T09:02:51;99239.00;;;1.10;69.45
72798;BME280;61084;55.816;37.036;2022-12-10T09:05:16;99234.59;;;1.14;69.49
72798;BME280;61084;55.816;37.036;2022-12-10T09:07:42;99226.81;;;1.17;69.62
72798;BME280;61084;55.816;37.036;2022-12-10T09:10:10;99236.28;;;1.16;69.54
72798;BME280;61084;55.816;37.036;2022-12-10T09:12:37;99235.44;;;1.17;69.26
72798;BME280;61084;55.816;37.036;2022-12-10T09:15:04;99231.97;;;1.17;69.79
72798;BME280;61084;55.816;37.036;2022-12-10T09:17:31;99224.16;;;1.20;69.62
72798;BME280;61084;55.816;37.036;2022-12-10T09:19:57;99219.81;;;1.23;69.23
72798;BME280;61084;55.816;37.036;2022-12-10T09:22:22;99213.72;;;1.24;69.19
72798;BME280;61084;55.816;37.036;2022-12-10T09:24:48;99215.44;;;1.25;69.25
72798;BME280;61084;55.816;37.036;2022-12-10T09:27:14;99215.38;;;1.28;69.26
72798;BME280;61084;55.816;37.036;2022-12-10T09:29:40;99208.47;;;1.29;69.03
72798;BME280;61084;55.816;37.036;2022-12-10T09:32:05;99212.69;;;1.33;69.12
72798;BME280;61084;55.816;37.036;2022-12-10T09:34:31;99212.78;;;1.30;69.23
72798;BME280;61084;55.816;37.036;2022-12-10T09:36:57;99213.59;;;1.32;69.13
72798;BME280;61084;55.816;37.036;2022-12-10T09:39:23;99206.72;;;1.32;69.01
72798;BME280;61084;55.816;37.036;2022-12-10T09:47:17;99207.44;;;1.39;69.20
72798;BME280;61084;55.816;37.036;2022-12-10T09:50:06;99196.19;;;1.40;69.15
72798;BME280;61084;55.816;37.036;2022-12-10T09:52:41;99197.03;;;1.42;69.48
72798;BME280;61084;55.816;37.036;2022-12-10T09:55:14;99197.00;;;1.43;69.24
72798;BME280;61084;55.816;37.036;2022-12-10T09:57:51;99197.84;;;1.44;69.27
72798;BME280;61084;55.816;37.036;2022-12-10T10:00:30;99189.25;;;1.43;69.16
72798;BME280;61084;55.816;37.036;2022-12-10T10:02:59;99191.84;;;1.43;69.01
72798;BME280;61084;55.816;37.036;2022-12-10T10:05:31;99191.84;;;1.42;69.00
72798;BME280;61084;55.816;37.036;2022-12-10T10:08:04;99193.56;;;1.43;69.04
72798;BME280;61084;55.816;37.036;2022-12-10T10:10:36;99179.72;;;1.45;68.92
72798;BME280;61084;55.816;37.036;2022-12-10T10:15:34;99181.53;;;1.40;69.18
72798;BME280;61084;55.816;37.036;2022-12-10T10:18:11;99176.38;;;1.40;68.84
72798;BME280;61084;55.816;37.036;2022-12-10T10:20:39;99178.97;;;1.40;69.23
72798;BME280;61084;55.816;37.036;2022-12-10T10:23:05;99171.16;;;1.42;69.37
72798;BME280;61084;55.816;37.036;2022-12-10T10:25:31;99166.81;;;1.45;69.44
72798;BME280;61084;55.816;37.036;2022-12-10T10:27:57;99162.53;;;1.43;69.12
72798;BME280;61084;55.816;37.036;2022-12-10T10:30:23;99166.81;;;1.44;69.11
72798;BME280;61084;55.816;37.036;2022-12-10T10:32:52;99160.91;;;1.37;69.30
72798;BME280;61084;55.816;37.036;2022-12-10T10:35:46;99169.44;;;1.42;70.00
72798;BME280;61084;55.816;37.036;2022-12-10T10:38:26;99158.16;;;1.46;69.56
72798;BME280;61084;55.816;37.036;2022-12-10T10:40:55;99159.78;;;1.50;69.58
72798;BME280;61084;55.816;37.036;2022-12-10T10:46:16;99152.06;;;1.49;69.69
72798;BME280;61084;55.816;37.036;2022-12-10T10:48:43;99152.03;;;1.50;69.90
72798;BME280;61084;55.816;37.036;2022-12-10T10:56:15;99132.19;;;1.51;69.82
72798;BME280;61084;55.816;37.036;2022-12-10T10:59:05;99127.84;;;1.53;69.69
72798;BME280;61084;55.816;37.036;2022-12-10T11:01:49;99126.97;;;1.52;70.04
72798;BME280;61084;55.816;37.036;2022-12-10T11:04:18;99122.63;;;1.56;69.80
72798;BME280;61084;55.816;37.036;2022-12-10T11:06:50;99119.13;;;1.59;69.56
72798;BME280;61084;55.816;37.036;2022-12-10T11:09:26;99113.03;;;1.60;69.68
72798;BME280;61084;55.816;37.036;2022-12-10T11:12:05;99117.31;;;1.62;69.60
72798;BME280;61084;55.816;37.036;2022-12-10T11:14:35;99109.53;;;1.62;69.69
72798;BME280;61084;55.816;37.036;2022-12-10T11:19:42;99111.38;;;1.57;69.23
72798;BME280;61084;55.816;37.036;2022-12-10T11:22:17;99111.38;;;1.57;69.60
72798;BME280;61084;55.816;37.036;2022-12-10T11:24:47;99121.75;;;1.56;70.01
72798;BME280;61084;55.816;37.036;2022-12-10T11:27:25;99116.53;;;1.59;69.54
72798;BME280;61084;55.816;37.036;2022-12-10T11:30:09;99108.69;;;1.62;70.25
72798;BME280;61084;55.816;37.036;2022-12-10T11:35:19;99093.09;;;1.65;69.80
72798;BME280;61084;55.816;37.036;2022-12-10T11:38:05;99097.38;;;1.67;69.84
72798;BME280;61084;55.816;37.036;2022-12-10T11:51:02;99080.13;;;1.66;69.72
72798;BME280;61084;55.816;37.036;2022-12-10T11:56:13;99087.84;;;1.68;69.73
72798;BME280;61084;55.816;37.036;2022-12-10T11:58:58;99091.28;;;1.70;69.87
72798;BME280;61084;55.816;37.036;2022-12-10T12:05:19;99086.91;;;1.72;69.71
72798;BME280;61084;55.816;37.036;2022-12-10T12:07:41;99091.28;;;1.70;69.77
72798;BME280;61084;55.816;37.036;2022-12-10T12:15:25;99080.88;;;1.71;69.93
72798;BME280;61084;55.816;37.036;2022-12-10T12:18:07;99086.97;;;1.69;69.78
72798;BME280;61084;55.816;37.036;2022-12-10T12:20:43;99078.38;;;1.68;70.08
72798;BME280;61084;55.816;37.036;2022-12-10T12:23:29;99080.13;;;1.66;69.97
72798;BME280;61084;55.816;37.036;2022-12-10T12:26:07;99083.56;;;1.67;69.90
72798;BME280;61084;55.816;37.036;2022-12-10T12:31:10;99073.19;;;1.70;69.89
72798;BME280;61084;55.816;37.036;2022-12-10T12:34:04;99079.22;;;1.69;69.85
72798;BME280;61084;55.816;37.036;2022-12-10T12:36:33;99080.94;;;1.68;70.20
72798;BME280;61084;55.816;37.036;2022-12-10T12:41:50;99077.44;;;1.71;69.94
72798;BME280;61084;55.816;37.036;2022-12-10T12:47:15;99069.72;;;1.69;70.14
72798;BME280;61084;55.816;37.036;2022-12-10T12:49:45;99069.72;;;1.69;70.16
72798;BME280;61084;55.816;37.036;2022-12-10T12:55:05;99078.38;;;1.68;69.88
72798;BME280;61084;55.816;37.036;2022-12-10T12:57:39;99080.09;;;1.68;69.81
72798;BME280;61084;55.816;37.036;2022-12-10T13:00:17;99079.25;;;1.67;70.14
72798;BME280;61084;55.816;37.036;2022-12-10T13:05:36;99072.31;;;1.69;69.93
72798;BME280;61084;55.816;37.036;2022-12-10T13:10:46;99072.41;;;1.65;69.64
72798;BME280;61084;55.816;37.036;2022-12-10T13:13:23;99074.19;;;1.61;70.23
72798;BME280;61084;55.816;37.036;2022-12-10T13:15:50;99070.78;;;1.61;70.02
72798;BME280;61084;55.816;37.036;2022-12-10T13:23:33;99068.16;;;1.62;70.32
72798;BME280;61084;55.816;37.036;2022-12-10T13:26:00;99067.25;;;1.65;70.20
72798;BME280;61084;55.816;37.036;2022-12-10T13:28:30;99065.53;;;1.65;69.98
72798;BME280;61084;55.816;37.036;2022-12-10T13:31:17;99065.53;;;1.65;70.30
72798;BME280;61084;55.816;37.036;2022-12-10T13:33:51;99068.09;;;1.65;70.16
72798;BME280;61084;55.816;37.036;2022-12-10T13:36:23;99068.94;;;1.66;70.44
72798;BME280;61084;55.816;37.036;2022-12-10T13:45:01;99058.59;;;1.66;70.10
72798;BME280;61084;55.816;37.036;2022-12-10T13:47:46;99057.72;;;1.67;70.31
72798;BME280;61084;55.816;37.036;2022-12-10T13:56:01;99048.47;;;1.55;70.09
72798;BME280;61084;55.816;37.036;2022-12-10T13:58:55;99050.94;;;1.61;70.05
72798;BME280;61084;55.816;37.036;2022-12-10T14:07:09;99042.41;;;1.58;70.14
72798;BME280;61084;55.816;37.036;2022-12-10T14:09:45;99039.81;;;1.58;70.02
72798;BME280;61084;55.816;37.036;2022-12-10T14:12:18;99034.69;;;1.54;70.27
72798;BME280;61084;55.816;37.036;2022-12-10T14:14:54;99025.25;;;1.53;70.05
72798;BME280;61084;55.816;37.036;2022-12-10T14:17:25;99021.91;;;1.48;69.86
72798;BME280;61084;55.816;37.036;2022-12-10T14:19:55;99029.75;;;1.45;69.99
72798;BME280;61084;55.816;37.036;2022-12-10T14:22:34;99022.94;;;1.41;70.31
72798;BME280;61084;55.816;37.036;2022-12-10T14:25:04;99019.47;;;1.42;70.54
72798;BME280;61084;55.816;37.036;2022-12-10T14:27:32;99006.50;;;1.44;70.92
72798;BME280;61084;55.816;37.036;2022-12-10T14:30:14;99012.53;;;1.44;70.38
72798;BME280;61084;55.816;37.036;2022-12-10T14:32:40;99009.06;;;1.45;70.42
72798;BME280;61084;55.816;37.036;2022-12-10T14:35:25;99010.81;;;1.45;70.61
72798;BME280;61084;55.816;37.036;2022-12-10T14:37:53;99001.38;;;1.42;70.56
72798;BME280;61084;55.816;37.036;2022-12-10T14:40:27;98998.84;;;1.39;70.29
72798;BME280;61084;55.816;37.036;2022-12-10T14:43:04;98993.72;;;1.38;70.46
72798;BME280;61084;55.816;37.036;2022-12-10T14:45:44;98996.31;;;1.38;70.41